createdAt,value
2019-04-29T00:00:45.646Z,1016.51
2019-04-29T00:01:45.617Z,1016.53
2019-04-29T00:02:45.618Z,1016.48
2019-04-29T00:03:45.618Z,1016.53
2019-04-29T00:04:45.596Z,1016.46
2019-04-29T00:05:45.602Z,1016.45
2019-04-29T00:06:45.584Z,1016.45
2019-04-29T00:07:45.559Z,1016.45
2019-04-29T00:08:45.552Z,1016.46
2019-04-29T00:09:45.537Z,1016.50
2019-04-29T00:10:45.527Z,1016.45
2019-04-29T00:11:45.542Z,1016.40
2019-04-29T00:12:45.499Z,1016.37
2019-04-29T00:13:45.490Z,1016.40
2019-04-29T00:14:45.497Z,1016.36
2019-04-29T00:15:45.472Z,1016.36
2019-04-29T00:16:45.476Z,1016.43
2019-04-29T00:17:45.450Z,1016.33
2019-04-29T00:18:45.434Z,1016.33
2019-04-29T00:19:45.429Z,1016.38
2019-04-29T00:20:45.418Z,1016.42
2019-04-29T00:21:45.427Z,1016.42
2019-04-29T00:22:45.393Z,1016.46
2019-04-29T00:23:45.383Z,1016.42
2019-04-29T00:24:45.374Z,1016.40
2019-04-29T00:25:45.368Z,1016.38
2019-04-29T00:26:45.380Z,1016.40
2019-04-29T00:27:45.347Z,1016.39
2019-04-29T00:28:45.330Z,1016.39
2019-04-29T00:29:45.332Z,1016.41
2019-04-29T00:30:45.306Z,1016.42
2019-04-29T00:31:45.314Z,1016.37
2019-04-29T00:32:45.295Z,1016.42
2019-04-29T00:33:45.299Z,1016.39
2019-04-29T00:34:45.270Z,1016.38
2019-04-29T00:35:45.250Z,1016.40
2019-04-29T00:36:45.275Z,1016.38
2019-04-29T00:37:45.253Z,1016.37
2019-04-29T00:38:45.227Z,1016.33
2019-04-29T00:39:45.220Z,1016.38
2019-04-29T00:40:45.202Z,1016.36
2019-04-29T00:41:45.238Z,1016.37
2019-04-29T00:42:45.193Z,1016.31
2019-04-29T00:43:45.168Z,1016.34
2019-04-29T00:44:45.192Z,1016.33
2019-04-29T00:45:45.161Z,1016.32
2019-04-29T00:46:45.179Z,1016.25
2019-04-29T00:47:45.125Z,1016.29
2019-04-29T00:48:45.112Z,1016.33
2019-04-29T00:49:45.107Z,1016.27
2019-04-29T00:50:45.098Z,1016.31
2019-04-29T00:51:45.109Z,1016.27
2019-04-29T00:52:45.075Z,1016.30
2019-04-29T00:53:45.063Z,1016.31
2019-04-29T00:54:45.053Z,1016.24
2019-04-29T00:55:45.045Z,1016.26
2019-04-29T00:56:45.045Z,1016.23
2019-04-29T00:57:45.015Z,1016.31
2019-04-29T00:58:45.011Z,1016.24
2019-04-29T00:59:45.001Z,1016.29
2019-04-29T01:00:44.997Z,1016.28
2019-04-29T01:01:45.027Z,1016.27
2019-04-29T01:02:44.987Z,1016.23
2019-04-29T01:03:44.955Z,1016.29
2019-04-29T01:04:44.945Z,1016.24
2019-04-29T01:05:44.929Z,1016.27
2019-04-29T01:06:44.955Z,1016.22
2019-04-29T01:07:44.925Z,1016.21
2019-04-29T01:08:44.912Z,1016.27
2019-04-29T01:09:44.891Z,1016.27
2019-04-29T01:10:44.894Z,1016.30
2019-04-29T01:11:44.889Z,1016.26
2019-04-29T01:12:44.864Z,1016.26
2019-04-29T01:13:44.857Z,1016.32
2019-04-29T01:14:44.852Z,1016.33
2019-04-29T01:15:44.827Z,1016.29
2019-04-29T01:16:44.835Z,1016.33
2019-04-29T01:17:44.827Z,1016.34
2019-04-29T01:18:44.798Z,1016.31
2019-04-29T01:19:44.807Z,1016.33
2019-04-29T01:20:44.773Z,1016.27
2019-04-29T01:21:44.759Z,1016.35
2019-04-29T01:22:52.045Z,1016.27
2019-04-29T01:23:44.758Z,1016.31
2019-04-29T01:24:44.729Z,1016.30
2019-04-29T01:25:44.734Z,1016.31
2019-04-29T01:26:53.054Z,1016.33
2019-04-29T01:27:44.693Z,1016.31
2019-04-29T01:28:44.721Z,1016.36
2019-04-29T01:29:44.685Z,1016.32
2019-04-29T01:30:44.685Z,1016.33
2019-04-29T01:31:44.722Z,1016.25
2019-04-29T01:32:44.680Z,1016.29
2019-04-29T01:33:44.638Z,1016.32
2019-04-29T01:34:44.623Z,1016.26
2019-04-29T01:35:44.613Z,1016.25
2019-04-29T01:36:44.684Z,1016.27
2019-04-29T01:37:44.681Z,1016.29
2019-04-29T01:38:44.594Z,1016.27
2019-04-29T01:39:44.603Z,1016.27
2019-04-29T01:40:44.563Z,1016.27
2019-04-29T01:41:44.555Z,1016.19
2019-04-29T01:42:44.669Z,1016.19
2019-04-29T01:43:46.568Z,1016.20
2019-04-29T01:44:44.561Z,1016.19
2019-04-29T01:45:44.504Z,1016.13
2019-04-29T01:46:44.518Z,1016.14
2019-04-29T01:47:44.530Z,1016.18
2019-04-29T01:48:44.590Z,1016.18
2019-04-29T01:49:44.526Z,1016.14
2019-04-29T01:50:44.515Z,1016.14
2019-04-29T01:51:44.503Z,1016.07
2019-04-29T01:52:44.446Z,1016.09
2019-04-29T01:53:44.422Z,1016.10
2019-04-29T01:54:44.418Z,1016.10
2019-04-29T01:55:44.432Z,1016.09
2019-04-29T01:56:44.388Z,1016.09
2019-04-29T01:57:44.405Z,1016.10
2019-04-29T01:58:44.362Z,1016.07
2019-04-29T01:59:44.428Z,1016.05
2019-04-29T02:00:44.390Z,1016.07
2019-04-29T02:01:44.362Z,1016.03
2019-04-29T02:02:44.344Z,1016.00
2019-04-29T02:03:44.363Z,1016.03
2019-04-29T02:04:44.354Z,1016.02
2019-04-29T02:05:44.354Z,1015.99
2019-04-29T02:06:44.349Z,1016.01
2019-04-29T02:07:44.412Z,1016.01
2019-04-29T02:08:44.315Z,1016.03
2019-04-29T02:09:44.326Z,1016.02
2019-04-29T02:10:44.284Z,1015.97
2019-04-29T02:11:44.314Z,1015.97
2019-04-29T02:12:44.395Z,1016.01
2019-04-29T02:13:44.206Z,1016.01
2019-04-29T02:14:44.195Z,1016.01
2019-04-29T02:15:44.245Z,1016.01
2019-04-29T02:16:44.217Z,1015.96
2019-04-29T02:17:44.220Z,1016.02
2019-04-29T02:18:44.287Z,1016.02
2019-04-29T02:19:44.231Z,1016.05
2019-04-29T02:20:46.213Z,1015.99
2019-04-29T02:21:44.216Z,1015.95
2019-04-29T02:22:44.186Z,1016.06
2019-04-29T02:23:44.288Z,1015.94
2019-04-29T02:24:44.172Z,1015.94
2019-04-29T02:25:44.133Z,1015.91
2019-04-29T02:26:44.089Z,1015.89
2019-04-29T02:27:44.113Z,1015.85
2019-04-29T02:28:44.217Z,1015.88
2019-04-29T02:29:44.089Z,1015.85
2019-04-29T02:30:44.067Z,1015.82
2019-04-29T02:31:44.017Z,1015.84
2019-04-29T02:32:44.069Z,1015.74
2019-04-29T02:33:44.081Z,1015.81
2019-04-29T02:34:44.027Z,1015.76
2019-04-29T02:35:44.037Z,1015.80
2019-04-29T02:36:44.000Z,1015.77
2019-04-29T02:37:43.978Z,1015.75
2019-04-29T02:38:43.965Z,1015.74
2019-04-29T02:39:43.979Z,1015.76
2019-04-29T02:40:43.961Z,1015.70
2019-04-29T02:41:43.937Z,1015.69
2019-04-29T02:42:43.899Z,1015.68
2019-04-29T02:43:43.918Z,1015.66
2019-04-29T02:44:43.877Z,1015.70
2019-04-29T02:45:43.887Z,1015.70
2019-04-29T02:46:43.914Z,1015.65
2019-04-29T02:47:43.877Z,1015.58
2019-04-29T02:48:43.875Z,1015.60
2019-04-29T02:49:43.903Z,1015.62
2019-04-29T02:50:45.918Z,1015.50
2019-04-29T02:51:43.880Z,1015.59
2019-04-29T02:52:45.899Z,1015.56
2019-04-29T02:53:43.822Z,1015.55
2019-04-29T02:54:43.783Z,1015.50
2019-04-29T02:55:43.829Z,1015.50
2019-04-29T02:58:57.813Z,1015.56
2019-04-29T02:59:57.649Z,1015.48
2019-04-29T03:00:57.655Z,1015.49
2019-04-29T03:01:57.635Z,1015.45
2019-04-29T03:02:57.624Z,1015.52
2019-04-29T03:03:36.634Z,1015.49
2019-04-29T03:04:36.606Z,1015.44
2019-04-29T03:05:39.911Z,1015.46
2019-04-29T03:06:36.591Z,1015.49
2019-04-29T03:07:36.568Z,1015.47
2019-04-29T03:08:36.591Z,1015.45
2019-04-29T03:09:36.567Z,1015.48
2019-04-29T03:10:36.530Z,1015.43
2019-04-29T03:11:36.537Z,1015.43
2019-04-29T03:12:36.506Z,1015.41
2019-04-29T03:13:36.497Z,1015.38
2019-04-29T03:14:36.546Z,1015.39
2019-04-29T03:15:36.477Z,1015.38
2019-04-29T03:16:36.472Z,1015.41
2019-04-29T03:17:36.455Z,1015.42
2019-04-29T03:18:36.469Z,1015.38
2019-04-29T03:19:36.556Z,1015.34
2019-04-29T03:20:36.442Z,1015.36
2019-04-29T03:21:36.413Z,1015.42
2019-04-29T03:22:36.404Z,1015.38
2019-04-29T03:23:36.391Z,1015.39
2019-04-29T03:24:36.396Z,1015.41
2019-04-29T03:25:36.371Z,1015.41
2019-04-29T03:26:36.366Z,1015.42
2019-04-29T03:27:36.346Z,1015.36
2019-04-29T03:28:36.338Z,1015.36
2019-04-29T03:29:36.358Z,1015.35
2019-04-29T03:30:36.334Z,1015.37
2019-04-29T03:31:39.503Z,1015.34
2019-04-29T03:32:36.312Z,1015.37
2019-04-29T03:33:36.285Z,1015.32
2019-04-29T03:34:36.285Z,1015.29
2019-04-29T03:35:36.261Z,1015.33
2019-04-29T03:36:36.260Z,1015.27
2019-04-29T03:37:36.258Z,1015.25
2019-04-29T03:38:36.233Z,1015.20
2019-04-29T03:39:36.262Z,1015.21
2019-04-29T03:40:36.210Z,1015.24
2019-04-29T03:41:36.200Z,1015.15
2019-04-29T03:42:36.186Z,1015.21
2019-04-29T03:43:36.176Z,1015.27
2019-04-29T03:44:36.188Z,1015.19
2019-04-29T03:45:36.148Z,1015.21
2019-04-29T03:46:36.138Z,1015.16
2019-04-29T03:47:36.130Z,1015.16
2019-04-29T03:48:36.122Z,1015.14
2019-04-29T03:49:36.133Z,1015.12
2019-04-29T03:50:36.096Z,1015.09
2019-04-29T03:51:36.079Z,1015.12
2019-04-29T03:52:36.073Z,1015.11
2019-04-29T03:53:36.077Z,1015.11
2019-04-29T03:54:36.073Z,1015.11
2019-04-29T03:55:40.062Z,1015.15
2019-04-29T03:56:36.035Z,1015.16
2019-04-29T03:57:36.017Z,1015.08
2019-04-29T03:58:36.075Z,1015.11
2019-04-29T03:59:36.020Z,1015.10
2019-04-29T04:00:36.008Z,1015.04
2019-04-29T04:01:35.981Z,1015.02
2019-04-29T04:02:35.960Z,1015.10
2019-04-29T04:03:35.955Z,1015.04
2019-04-29T04:04:35.963Z,1015.05
2019-04-29T04:05:35.939Z,1015.07
2019-04-29T04:06:35.928Z,1014.97
2019-04-29T04:07:35.911Z,1015.01
2019-04-29T04:08:35.899Z,1015.01
2019-04-29T04:09:35.913Z,1015.01
2019-04-29T04:10:35.885Z,1014.94
2019-04-29T04:11:35.877Z,1014.98
2019-04-29T04:12:35.878Z,1014.93
2019-04-29T04:13:35.847Z,1014.94
2019-04-29T04:14:35.853Z,1014.92
2019-04-29T04:15:35.828Z,1014.92
2019-04-29T04:16:35.813Z,1014.97
2019-04-29T04:17:35.849Z,1014.89
2019-04-29T04:18:35.795Z,1014.91
2019-04-29T04:19:35.818Z,1014.89
2019-04-29T04:20:35.770Z,1014.88
2019-04-29T04:21:35.758Z,1014.88
2019-04-29T04:22:35.751Z,1014.89
2019-04-29T04:23:35.751Z,1014.87
2019-04-29T04:24:35.827Z,1014.86
2019-04-29T04:25:35.824Z,1014.87
2019-04-29T04:26:35.703Z,1014.92
2019-04-29T04:27:35.696Z,1014.89
2019-04-29T04:28:35.688Z,1014.91
2019-04-29T04:29:35.689Z,1014.93
2019-04-29T04:30:35.670Z,1014.85
2019-04-29T04:31:35.655Z,1014.87
2019-04-29T04:32:35.651Z,1014.83
2019-04-29T04:33:35.637Z,1014.86
2019-04-29T04:34:35.653Z,1014.87
2019-04-29T04:35:35.625Z,1014.87
2019-04-29T04:36:35.598Z,1014.82
2019-04-29T04:37:35.581Z,1014.81
2019-04-29T04:38:35.580Z,1014.78
2019-04-29T04:39:35.571Z,1014.79
2019-04-29T04:40:35.580Z,1014.83
2019-04-29T04:41:35.541Z,1014.83
2019-04-29T04:42:35.532Z,1014.78
2019-04-29T04:43:35.518Z,1014.82
2019-04-29T04:44:35.509Z,1014.83
2019-04-29T04:45:35.513Z,1014.78
2019-04-29T04:46:35.499Z,1014.78
2019-04-29T04:47:35.472Z,1014.83
2019-04-29T04:48:35.464Z,1014.86
2019-04-29T04:49:35.460Z,1014.82
2019-04-29T04:50:35.473Z,1014.80
2019-04-29T04:51:35.439Z,1014.83
2019-04-29T04:52:35.426Z,1014.80
2019-04-29T04:53:35.411Z,1014.74
2019-04-29T04:54:35.401Z,1014.76
2019-04-29T04:55:35.400Z,1014.80
2019-04-29T04:56:35.374Z,1014.83
2019-04-29T04:57:35.372Z,1014.71
2019-04-29T04:58:35.359Z,1014.76
2019-04-29T04:59:35.347Z,1014.70
2019-04-29T05:00:35.369Z,1014.74
2019-04-29T05:01:35.320Z,1014.74
2019-04-29T05:02:35.311Z,1014.66
2019-04-29T05:03:35.311Z,1014.67
2019-04-29T05:04:35.343Z,1014.67
2019-04-29T05:05:35.296Z,1014.69
2019-04-29T05:06:35.265Z,1014.66
2019-04-29T05:07:35.321Z,1014.70
2019-04-29T05:08:35.254Z,1014.73
2019-04-29T05:09:35.232Z,1014.71
2019-04-29T05:10:35.244Z,1014.69
2019-04-29T05:11:35.212Z,1014.72
2019-04-29T05:12:35.205Z,1014.72
2019-04-29T05:13:35.202Z,1014.65
2019-04-29T05:14:35.182Z,1014.64
2019-04-29T05:15:35.206Z,1014.64
2019-04-29T05:16:35.158Z,1014.62
2019-04-29T05:17:35.161Z,1014.66
2019-04-29T05:18:35.171Z,1014.64
2019-04-29T05:19:35.127Z,1014.68
2019-04-29T05:20:35.133Z,1014.70
2019-04-29T05:21:35.107Z,1014.64
2019-04-29T05:22:35.100Z,1014.62
2019-04-29T05:23:35.101Z,1014.64
2019-04-29T05:24:35.079Z,1014.68
2019-04-29T05:25:35.079Z,1014.63
2019-04-29T05:26:35.073Z,1014.64
2019-04-29T05:27:35.046Z,1014.72
2019-04-29T05:28:35.042Z,1014.72
2019-04-29T05:29:35.018Z,1014.64
2019-04-29T05:30:35.007Z,1014.70
2019-04-29T05:31:35.014Z,1014.62
2019-04-29T05:32:34.997Z,1014.66
2019-04-29T05:33:34.982Z,1014.63
2019-04-29T05:34:34.973Z,1014.69
2019-04-29T05:35:34.959Z,1014.69
2019-04-29T05:36:38.234Z,1014.65
2019-04-29T05:37:34.938Z,1014.73
2019-04-29T05:38:34.925Z,1014.67
2019-04-29T05:39:34.908Z,1014.62
2019-04-29T05:40:34.913Z,1014.65
2019-04-29T05:41:36.343Z,1014.66
2019-04-29T05:42:34.881Z,1014.68
2019-04-29T05:43:34.870Z,1014.73
2019-04-29T05:44:34.861Z,1014.75
2019-04-29T05:45:34.847Z,1014.70
2019-04-29T05:46:34.861Z,1014.64
2019-04-29T05:47:34.823Z,1014.63
2019-04-29T05:48:34.823Z,1014.64
2019-04-29T05:49:37.456Z,1014.64
2019-04-29T05:50:35.793Z,1014.74
2019-04-29T05:51:34.797Z,1014.70
2019-04-29T05:52:39.472Z,1014.62
2019-04-29T05:53:35.775Z,1014.58
2019-04-29T05:54:34.774Z,1014.64
2019-04-29T05:55:34.738Z,1014.66
2019-04-29T05:56:34.753Z,1014.59
2019-04-29T05:57:34.712Z,1014.64
2019-04-29T05:58:37.838Z,1014.69
2019-04-29T05:59:34.691Z,1014.69
2019-04-29T06:00:34.689Z,1014.72
2019-04-29T06:01:34.693Z,1014.71
2019-04-29T06:02:38.695Z,1014.76
2019-04-29T06:03:37.814Z,1014.76
2019-04-29T06:04:34.638Z,1014.72
2019-04-29T06:05:34.749Z,1014.73
2019-04-29T06:06:34.648Z,1014.79
2019-04-29T06:07:34.611Z,1014.76
2019-04-29T06:08:39.053Z,1014.81
2019-04-29T06:09:34.583Z,1014.82
2019-04-29T06:10:34.578Z,1014.82
2019-04-29T06:11:34.580Z,1014.83
2019-04-29T06:12:34.558Z,1014.88
2019-04-29T06:13:34.545Z,1014.94
2019-04-29T06:14:34.544Z,1014.93
2019-04-29T06:15:34.528Z,1014.86
2019-04-29T06:16:34.534Z,1014.86
2019-04-29T06:17:34.500Z,1014.86
2019-04-29T06:18:34.489Z,1014.86
2019-04-29T06:19:35.197Z,1014.86
2019-04-29T06:20:34.466Z,1014.85
2019-04-29T06:21:34.478Z,1014.88
2019-04-29T06:22:37.864Z,1014.88
2019-04-29T06:23:35.432Z,1014.88
2019-04-29T06:24:36.988Z,1014.91
2019-04-29T06:25:35.414Z,1014.91
2019-04-29T06:26:34.438Z,1014.89
2019-04-29T06:27:34.386Z,1014.89
2019-04-29T06:28:34.380Z,1014.83
2019-04-29T06:29:34.389Z,1014.81
2019-04-29T06:30:37.626Z,1014.79
2019-04-29T06:31:35.354Z,1014.78
2019-04-29T06:32:34.352Z,1014.73
2019-04-29T06:33:34.322Z,1014.74
2019-04-29T06:34:35.515Z,1014.68
2019-04-29T06:35:35.294Z,1014.63
2019-04-29T06:36:34.307Z,1014.69
2019-04-29T06:37:34.796Z,1014.65
2019-04-29T06:38:34.271Z,1014.68
2019-04-29T06:39:37.178Z,1014.66
2019-04-29T06:40:55.271Z,1014.55
2019-04-29T06:41:34.243Z,1014.61
2019-04-29T06:42:34.255Z,1014.44
2019-04-29T06:43:34.230Z,1014.46
2019-04-29T06:44:34.213Z,1014.45
2019-04-29T06:45:34.215Z,1014.40
2019-04-29T06:46:34.190Z,1014.42
2019-04-29T06:47:34.188Z,1014.36
2019-04-29T06:48:34.170Z,1014.35
2019-04-29T06:49:34.154Z,1014.33
2019-04-29T06:50:34.143Z,1014.36
2019-04-29T06:51:34.129Z,1014.34
2019-04-29T06:52:34.143Z,1014.38
2019-04-29T06:53:34.107Z,1014.37
2019-04-29T06:54:34.093Z,1014.35
2019-04-29T06:55:34.103Z,1014.28
2019-04-29T06:56:34.072Z,1014.28
2019-04-29T06:57:34.079Z,1014.27
2019-04-29T06:58:36.623Z,1014.27
2019-04-29T06:59:34.047Z,1014.32
2019-04-29T07:00:34.035Z,1014.30
2019-04-29T07:01:37.533Z,1014.36
2019-04-29T07:02:34.084Z,1014.44
2019-04-29T07:03:34.009Z,1014.40
2019-04-29T07:04:38.458Z,1014.37
2019-04-29T07:05:34.989Z,1014.44
2019-04-29T07:06:33.967Z,1014.48
2019-04-29T07:07:33.995Z,1014.51
2019-04-29T07:08:33.958Z,1014.51
2019-04-29T07:09:33.935Z,1014.54
2019-04-29T07:10:33.921Z,1014.50
2019-04-29T07:11:36.645Z,1014.54
2019-04-29T07:12:33.916Z,1014.57
2019-04-29T07:13:33.887Z,1014.55
2019-04-29T07:14:38.295Z,1014.56
2019-04-29T07:15:33.869Z,1014.55
2019-04-29T07:16:33.868Z,1014.53
2019-04-29T07:17:36.556Z,1014.60
2019-04-29T07:18:34.860Z,1014.49
2019-04-29T07:19:33.823Z,1014.50
2019-04-29T07:20:37.244Z,1014.41
2019-04-29T07:21:33.851Z,1014.48
2019-04-29T07:22:33.795Z,1014.45
2019-04-29T07:23:33.805Z,1014.46
2019-04-29T07:24:33.787Z,1014.45
2019-04-29T07:25:33.758Z,1014.51
2019-04-29T07:26:33.751Z,1014.52
2019-04-29T07:27:34.499Z,1014.50
2019-04-29T07:28:34.745Z,1014.59
2019-04-29T07:29:33.722Z,1014.54
2019-04-29T07:30:39.361Z,1014.50
2019-04-29T07:31:35.187Z,1014.48
2019-04-29T07:32:33.678Z,1014.48
2019-04-29T07:33:33.691Z,1014.50
2019-04-29T07:34:36.474Z,1014.48
2019-04-29T07:35:37.882Z,1014.47
2019-04-29T07:36:33.642Z,1014.47
2019-04-29T07:37:34.436Z,1014.44
2019-04-29T07:38:41.358Z,1014.47
2019-04-29T07:39:34.616Z,1014.44
2019-04-29T07:40:33.602Z,1014.48
2019-04-29T07:41:33.582Z,1014.49
2019-04-29T07:42:33.585Z,1014.49
2019-04-29T07:43:33.590Z,1014.53
2019-04-29T07:44:43.783Z,1014.49
2019-04-29T07:45:44.061Z,1014.48
2019-04-29T07:46:55.219Z,1014.52
2019-04-29T07:47:34.580Z,1014.50
2019-04-29T07:48:36.922Z,1014.54
2019-04-29T07:49:34.496Z,1014.49
2019-04-29T07:50:33.496Z,1014.39
2019-04-29T07:51:34.750Z,1014.37
2019-04-29T07:52:34.476Z,1014.51
2019-04-29T07:53:40.124Z,1014.51
2019-04-29T07:54:34.457Z,1014.47
2019-04-29T07:55:33.434Z,1014.50
2019-04-29T07:56:33.420Z,1014.46
2019-04-29T07:57:33.422Z,1014.41
2019-04-29T07:58:33.426Z,1014.39
2019-04-29T07:59:33.877Z,1014.47
2019-04-29T08:00:33.391Z,1014.53
2019-04-29T08:01:33.360Z,1014.45
2019-04-29T08:02:33.373Z,1014.54
2019-04-29T08:03:33.360Z,1014.44
2019-04-29T08:04:33.338Z,1014.44
2019-04-29T08:05:33.326Z,1014.51
2019-04-29T08:06:33.309Z,1014.37
2019-04-29T08:07:33.297Z,1014.37
2019-04-29T08:08:33.311Z,1014.34
2019-04-29T08:09:33.286Z,1014.42
2019-04-29T08:10:33.266Z,1014.41
2019-04-29T08:11:33.262Z,1014.36
2019-04-29T08:12:33.287Z,1014.33
2019-04-29T08:13:33.270Z,1014.40
2019-04-29T08:14:33.227Z,1014.37
2019-04-29T08:15:36.822Z,1014.34
2019-04-29T08:16:34.202Z,1014.34
2019-04-29T08:17:33.198Z,1014.33
2019-04-29T08:18:33.203Z,1014.41
2019-04-29T08:19:33.174Z,1014.42
2019-04-29T08:20:35.455Z,1014.46
2019-04-29T08:21:34.157Z,1014.43
2019-04-29T08:22:33.135Z,1014.45
2019-04-29T08:23:40.927Z,1014.43
2019-04-29T08:24:37.211Z,1014.43
2019-04-29T08:25:33.099Z,1014.43
2019-04-29T08:26:33.623Z,1014.49
2019-04-29T08:27:39.882Z,1014.48
2019-04-29T08:28:34.109Z,1014.45
2019-04-29T08:29:35.664Z,1014.46
2019-04-29T08:30:33.052Z,1014.50
2019-04-29T08:31:33.040Z,1014.46
2019-04-29T08:32:36.353Z,1014.45
2019-04-29T08:33:33.047Z,1014.47
2019-04-29T08:34:33.165Z,1014.49
2019-04-29T08:35:36.879Z,1014.52
2019-04-29T08:36:32.981Z,1014.51
2019-04-29T08:37:33.699Z,1014.55
2019-04-29T08:38:32.957Z,1014.57
2019-04-29T08:39:32.977Z,1014.52
2019-04-29T08:40:34.349Z,1014.48
2019-04-29T08:41:32.931Z,1014.45
2019-04-29T08:42:37.200Z,1014.48
2019-04-29T08:43:32.913Z,1014.45
2019-04-29T08:44:32.933Z,1014.43
2019-04-29T08:45:34.686Z,1014.42
2019-04-29T08:46:34.713Z,1014.36
2019-04-29T08:47:32.860Z,1014.38
2019-04-29T08:48:32.975Z,1014.46
2019-04-29T08:49:32.868Z,1014.44
2019-04-29T08:50:32.836Z,1014.49
2019-04-29T08:51:32.852Z,1014.38
2019-04-29T08:52:32.856Z,1014.41
2019-04-29T08:53:32.792Z,1014.43
2019-04-29T08:54:32.807Z,1014.43
2019-04-29T08:55:36.311Z,1014.47
2019-04-29T08:56:32.766Z,1014.41
2019-04-29T08:57:36.595Z,1014.42
2019-04-29T08:58:32.746Z,1014.42
2019-04-29T08:59:32.745Z,1014.51
2019-04-29T09:00:32.742Z,1014.44
2019-04-29T09:01:34.186Z,1014.51
2019-04-29T09:02:35.074Z,1014.48
2019-04-29T09:03:40.149Z,1014.36
2019-04-29T09:04:35.321Z,1014.35
2019-04-29T09:05:32.673Z,1014.30
2019-04-29T09:06:33.971Z,1014.25
2019-04-29T09:07:32.645Z,1014.26
2019-04-29T09:08:34.255Z,1014.25
2019-04-29T09:09:32.682Z,1014.31
2019-04-29T09:10:33.000Z,1014.36
2019-04-29T09:11:32.677Z,1014.32
2019-04-29T09:12:32.590Z,1014.38
2019-04-29T09:13:32.580Z,1014.36
2019-04-29T09:14:32.598Z,1014.35
2019-04-29T09:15:32.556Z,1014.30
2019-04-29T09:16:32.544Z,1014.39
2019-04-29T09:17:32.538Z,1014.33
2019-04-29T09:18:32.519Z,1014.36
2019-04-29T09:19:32.527Z,1014.30
2019-04-29T09:20:32.524Z,1014.31
2019-04-29T09:21:32.488Z,1014.22
2019-04-29T09:22:32.502Z,1014.22
2019-04-29T09:23:32.481Z,1014.25
2019-04-29T09:24:32.472Z,1014.15
2019-04-29T09:25:32.478Z,1014.21
2019-04-29T09:26:32.442Z,1014.24
2019-04-29T09:27:32.422Z,1014.20
2019-04-29T09:28:32.413Z,1014.19
2019-04-29T09:29:32.444Z,1014.17
2019-04-29T09:30:32.394Z,1014.19
2019-04-29T09:31:32.403Z,1014.14
2019-04-29T09:32:33.991Z,1014.20
2019-04-29T09:33:32.378Z,1014.23
2019-04-29T09:34:32.373Z,1014.20
2019-04-29T09:35:33.871Z,1014.19
2019-04-29T09:36:33.337Z,1014.22
2019-04-29T09:37:32.317Z,1014.19
2019-04-29T09:38:36.381Z,1014.11
2019-04-29T09:39:42.926Z,1014.10
2019-04-29T09:40:33.286Z,1014.09
2019-04-29T09:41:35.001Z,1014.11
2019-04-29T09:42:32.278Z,1014.17
2019-04-29T09:43:32.944Z,1014.12
2019-04-29T09:44:35.296Z,1014.14
2019-04-29T09:45:33.230Z,1014.24
2019-04-29T09:46:34.402Z,1014.20
2019-04-29T09:47:32.233Z,1014.21
2019-04-29T09:48:32.201Z,1014.14
2019-04-29T09:49:32.186Z,1014.15
2019-04-29T09:50:34.135Z,1014.17
2019-04-29T09:51:33.174Z,1014.18
2019-04-29T09:52:32.160Z,1014.16
2019-04-29T09:53:32.147Z,1014.10
2019-04-29T09:54:32.155Z,1014.15
2019-04-29T09:55:35.635Z,1014.06
2019-04-29T09:56:34.848Z,1014.09
2019-04-29T09:57:32.099Z,1014.09
2019-04-29T09:58:32.117Z,1014.05
2019-04-29T09:59:32.088Z,1014.07
2019-04-29T10:00:32.085Z,1014.07
2019-04-29T10:01:32.056Z,1014.03
2019-04-29T10:02:33.192Z,1014.01
2019-04-29T10:03:32.038Z,1014.06
2019-04-29T10:04:32.030Z,1014.02
2019-04-29T10:05:32.040Z,1014.00
2019-04-29T10:06:32.013Z,1014.03
2019-04-29T10:07:31.993Z,1014.00
2019-04-29T10:08:31.981Z,1014.08
2019-04-29T10:09:31.979Z,1014.07
2019-04-29T10:10:31.999Z,1014.08
2019-04-29T10:11:31.957Z,1014.03
2019-04-29T10:12:31.945Z,1014.06
2019-04-29T10:13:31.941Z,1014.01
2019-04-29T10:14:31.918Z,1014.02
2019-04-29T10:15:31.912Z,1014.00
2019-04-29T10:16:35.953Z,1013.95
2019-04-29T10:17:32.948Z,1014.03
2019-04-29T10:18:31.873Z,1013.95
2019-04-29T10:19:31.855Z,1014.04
2019-04-29T10:20:31.869Z,1013.98
2019-04-29T10:21:31.863Z,1013.98
2019-04-29T10:22:31.829Z,1014.02
2019-04-29T10:23:31.865Z,1014.05
2019-04-29T10:24:31.803Z,1014.05
2019-04-29T10:25:31.818Z,1014.07
2019-04-29T10:26:31.897Z,1014.09
2019-04-29T10:27:31.777Z,1014.11
2019-04-29T10:28:31.773Z,1014.09
2019-04-29T10:29:31.763Z,1014.14
2019-04-29T10:30:32.530Z,1014.16
2019-04-29T10:31:31.758Z,1014.16
2019-04-29T10:32:31.762Z,1014.15
2019-04-29T10:33:31.714Z,1014.16
2019-04-29T10:34:33.029Z,1014.15
2019-04-29T10:35:31.697Z,1014.15
2019-04-29T10:36:31.712Z,1014.18
2019-04-29T10:37:32.679Z,1014.17
2019-04-29T10:38:31.659Z,1014.12
2019-04-29T10:39:31.643Z,1014.12
2019-04-29T10:40:31.634Z,1014.10
2019-04-29T10:41:31.654Z,1014.08
2019-04-29T10:42:31.626Z,1014.09
2019-04-29T10:43:31.630Z,1014.05
2019-04-29T10:44:31.594Z,1014.03
2019-04-29T10:45:31.586Z,1014.06
2019-04-29T10:46:31.603Z,1014.01
2019-04-29T10:47:31.558Z,1014.07
2019-04-29T10:48:31.549Z,1014.01
2019-04-29T10:49:34.894Z,1014.04
2019-04-29T10:50:32.518Z,1014.03
2019-04-29T10:51:31.556Z,1014.09
2019-04-29T10:52:34.610Z,1014.06
2019-04-29T10:53:32.497Z,1014.10
2019-04-29T10:54:31.482Z,1014.11
2019-04-29T10:55:31.765Z,1014.09
2019-04-29T10:56:31.600Z,1014.07
2019-04-29T10:57:31.446Z,1014.07
2019-04-29T10:58:35.497Z,1014.12
2019-04-29T10:59:35.916Z,1014.17
2019-04-29T11:00:31.428Z,1014.13
2019-04-29T11:01:31.447Z,1014.10
2019-04-29T11:02:31.392Z,1014.11
2019-04-29T11:03:31.389Z,1014.14
2019-04-29T11:04:31.771Z,1014.09
2019-04-29T11:05:31.362Z,1014.11
2019-04-29T11:06:35.653Z,1014.15
2019-04-29T11:07:33.257Z,1014.16
2019-04-29T11:08:33.729Z,1014.11
2019-04-29T11:09:32.319Z,1014.12
2019-04-29T11:10:31.311Z,1014.12
2019-04-29T11:11:31.295Z,1014.14
2019-04-29T11:12:31.309Z,1014.16
2019-04-29T11:13:31.309Z,1014.13
2019-04-29T11:14:33.158Z,1014.10
2019-04-29T11:15:32.778Z,1014.14
2019-04-29T11:16:46.066Z,1014.09
2019-04-29T11:17:34.864Z,1014.12
2019-04-29T11:18:31.229Z,1014.15
2019-04-29T11:19:35.104Z,1014.16
2019-04-29T11:20:32.198Z,1014.14
2019-04-29T11:21:31.390Z,1014.16
2019-04-29T11:22:34.078Z,1014.13
2019-04-29T11:23:32.169Z,1014.20
2019-04-29T11:24:32.466Z,1014.18
2019-04-29T11:25:31.157Z,1014.12
2019-04-29T11:26:31.134Z,1014.15
2019-04-29T11:27:31.137Z,1014.09
2019-04-29T11:28:31.108Z,1014.14
2019-04-29T11:29:31.099Z,1014.12
2019-04-29T11:30:34.805Z,1014.15
2019-04-29T11:31:32.073Z,1014.10
2019-04-29T11:32:31.084Z,1014.08
2019-04-29T11:33:31.050Z,1014.14
2019-04-29T11:34:33.189Z,1014.09
2019-04-29T11:35:31.030Z,1014.08
2019-04-29T11:36:31.028Z,1014.13
2019-04-29T11:37:31.046Z,1014.13
2019-04-29T11:38:33.392Z,1014.14
2019-04-29T11:39:31.988Z,1014.16
2019-04-29T11:40:43.068Z,1014.12
2019-04-29T11:41:31.965Z,1014.09
2019-04-29T11:42:31.841Z,1014.18
2019-04-29T11:43:31.949Z,1014.12
2019-04-29T11:44:31.991Z,1014.13
2019-04-29T11:45:33.731Z,1014.16
2019-04-29T11:46:31.917Z,1014.15
2019-04-29T11:47:30.932Z,1014.19
2019-04-29T11:48:30.884Z,1014.16
2019-04-29T11:49:30.880Z,1014.17
2019-04-29T11:50:30.871Z,1014.14
2019-04-29T11:51:34.147Z,1014.14
2019-04-29T11:52:31.871Z,1014.15
2019-04-29T11:53:30.874Z,1014.14
2019-04-29T11:54:30.841Z,1014.14
2019-04-29T11:55:30.815Z,1014.15
2019-04-29T11:56:30.808Z,1014.11
2019-04-29T11:57:40.780Z,1014.12
2019-04-29T11:58:31.807Z,1014.11
2019-04-29T11:59:30.939Z,1014.12
2019-04-29T12:00:30.762Z,1014.11
2019-04-29T12:01:38.394Z,1014.10
2019-04-29T12:02:44.500Z,1014.16
2019-04-29T12:03:31.731Z,1014.10
2019-04-29T12:04:33.488Z,1014.13
2019-04-29T12:05:30.704Z,1014.11
2019-04-29T12:06:30.693Z,1014.11
2019-04-29T12:07:32.553Z,1014.09